createdAt,value
2023-10-31T00:01:10.253Z,1.80
2023-10-31T00:03:57.060Z,2.37
2023-10-31T00:06:43.794Z,3.00
2023-10-31T00:09:32.476Z,3.17
2023-10-31T00:12:18.979Z,3.72
2023-10-31T00:15:05.759Z,3.45
2023-10-31T00:17:53.478Z,3.10
2023-10-31T00:20:39.905Z,2.67
2023-10-31T00:23:28.367Z,3.20
2023-10-31T00:26:15.023Z,3.08
2023-10-31T00:29:09.028Z,3.30
2023-10-31T00:31:56.081Z,3.50
2023-10-31T00:34:46.308Z,4.93
2023-10-31T00:37:35.562Z,3.40
2023-10-31T00:40:22.129Z,3.30
2023-10-31T00:43:08.849Z,4.80
2023-10-31T00:46:01.181Z,4.18
2023-10-31T00:48:47.831Z,3.47
2023-10-31T00:51:38.071Z,2.90
2023-10-31T00:54:27.069Z,3.23
2023-10-31T00:57:13.568Z,2.30
2023-10-31T01:00:01.273Z,2.95
2023-10-31T01:02:48.174Z,3.30
2023-10-31T01:05:34.781Z,3.78
2023-10-31T01:08:25.454Z,2.90
2023-10-31T01:11:12.164Z,3.22
2023-10-31T01:14:00.152Z,2.20
2023-10-31T01:16:47.072Z,2.30
2023-10-31T01:19:34.748Z,2.00
2023-10-31T01:22:21.224Z,1.80
2023-10-31T01:25:13.770Z,3.95
2023-10-31T01:28:03.373Z,2.15
2023-10-31T01:30:51.008Z,1.90
2023-10-31T01:33:37.962Z,1.65
2023-10-31T01:36:29.706Z,1.20
2023-10-31T01:39:16.354Z,1.67
2023-10-31T01:42:03.985Z,3.03
2023-10-31T01:44:50.531Z,1.90
2023-10-31T01:47:44.638Z,2.70
2023-10-31T01:50:33.515Z,2.58
2023-10-31T01:53:21.470Z,1.77
2023-10-31T01:56:11.509Z,3.60
2023-10-31T01:59:01.739Z,1.70
2023-10-31T02:01:51.934Z,3.28
2023-10-31T02:04:39.228Z,2.97
2023-10-31T02:07:30.202Z,2.72
2023-10-31T02:10:17.223Z,4.30
2023-10-31T02:13:14.637Z,3.00
2023-10-31T02:16:05.643Z,5.97
2023-10-31T02:18:54.281Z,5.40
2023-10-31T02:21:42.659Z,4.80
2023-10-31T02:24:30.202Z,4.25
2023-10-31T02:27:16.840Z,5.20
2023-10-31T02:30:05.892Z,3.23
2023-10-31T02:32:52.581Z,3.92
2023-10-31T02:35:41.695Z,4.70
2023-10-31T02:38:29.464Z,3.67
2023-10-31T02:41:16.798Z,3.17
2023-10-31T02:44:03.243Z,3.55
2023-10-31T02:46:49.620Z,3.15
2023-10-31T02:49:38.623Z,3.28
2023-10-31T02:52:25.293Z,2.92
2023-10-31T02:55:15.833Z,4.20
2023-10-31T02:58:03.157Z,3.20
2023-10-31T03:00:52.451Z,3.83
2023-10-31T03:03:39.046Z,3.00
2023-10-31T03:06:28.351Z,2.53
2023-10-31T03:09:22.411Z,2.30
2023-10-31T03:12:10.662Z,2.15
2023-10-31T03:14:57.026Z,2.80
2023-10-31T03:17:44.146Z,2.33
2023-10-31T03:20:30.512Z,2.17
2023-10-31T03:23:19.684Z,3.92
2023-10-31T03:26:06.365Z,3.72
2023-10-31T03:28:58.296Z,5.78
2023-10-31T03:31:45.088Z,8.20
2023-10-31T03:34:39.101Z,6.88
2023-10-31T03:37:25.448Z,5.50
2023-10-31T03:40:12.438Z,8.70
2023-10-31T03:43:02.205Z,7.50
2023-10-31T03:46:01.534Z,7.30
2023-10-31T03:48:47.977Z,8.95
2023-10-31T03:51:35.032Z,9.43
2023-10-31T03:54:21.702Z,9.55
2023-10-31T03:57:08.726Z,9.25
2023-10-31T03:59:55.232Z,8.60
2023-10-31T04:02:46.885Z,8.90
2023-10-31T04:05:41.687Z,8.80
2023-10-31T04:08:30.617Z,8.63
2023-10-31T04:11:17.283Z,7.45
2023-10-31T04:14:05.171Z,7.43
2023-10-31T04:16:51.719Z,9.10
2023-10-31T04:19:47.354Z,8.02
2023-10-31T04:22:33.855Z,7.18
2023-10-31T04:25:23.093Z,9.52
2023-10-31T04:28:09.377Z,6.45
2023-10-31T04:30:55.916Z,6.72
2023-10-31T04:33:42.198Z,7.18
2023-10-31T04:36:30.308Z,7.53
2023-10-31T04:39:17.000Z,9.02
2023-10-31T04:42:03.551Z,7.05
2023-10-31T04:44:50.089Z,8.90
2023-10-31T04:47:36.712Z,6.53
2023-10-31T04:50:23.833Z,8.60
2023-10-31T04:53:14.028Z,7.25
2023-10-31T04:56:00.587Z,8.02
2023-10-31T04:58:46.933Z,6.28
2023-10-31T05:01:33.145Z,8.23
2023-10-31T05:04:10.772Z,7.30
2023-10-31T05:07:00.254Z,7.05
2023-10-31T05:09:48.243Z,8.00
2023-10-31T05:12:35.507Z,11.20
2023-10-31T05:15:22.598Z,5.97
2023-10-31T05:18:11.339Z,6.50
2023-10-31T05:21:00.410Z,5.57
2023-10-31T05:23:49.059Z,5.80
2023-10-31T05:26:39.277Z,5.90
2023-10-31T05:32:29.353Z,5.20
2023-10-31T05:35:16.466Z,5.60
2023-10-31T05:38:04.259Z,4.45
2023-10-31T05:40:50.637Z,6.55
2023-10-31T05:43:38.397Z,7.05
2023-10-31T05:46:24.977Z,6.63
2023-10-31T05:49:12.545Z,5.30
2023-10-31T05:52:00.256Z,5.38
2023-10-31T05:54:48.873Z,6.50
2023-10-31T05:57:35.331Z,7.17
2023-10-31T06:00:23.468Z,7.72
2023-10-31T06:03:10.320Z,7.40
2023-10-31T06:05:57.078Z,7.30
2023-10-31T06:08:43.894Z,7.78
2023-10-31T06:11:30.660Z,9.60
2023-10-31T06:14:17.506Z,9.00
2023-10-31T06:17:08.375Z,9.00
2023-10-31T06:19:54.878Z,12.63
2023-10-31T06:22:42.306Z,10.07
2023-10-31T06:25:28.927Z,9.95
2023-10-31T06:28:15.436Z,12.00
2023-10-31T06:31:02.001Z,12.15
2023-10-31T06:33:51.395Z,11.20
2023-10-31T06:36:38.266Z,11.65
2023-10-31T06:39:24.746Z,10.60
2023-10-31T06:42:11.082Z,12.30
2023-10-31T06:44:57.560Z,14.55
2023-10-31T06:47:43.945Z,14.02
2023-10-31T06:50:34.070Z,11.43
2023-10-31T06:53:24.179Z,12.30
2023-10-31T06:56:11.035Z,12.57
2023-10-31T06:58:57.986Z,14.60
2023-10-31T07:01:44.550Z,12.30
2023-10-31T07:04:31.655Z,13.02
2023-10-31T07:07:22.434Z,13.00
2023-10-31T07:10:09.919Z,11.52
2023-10-31T07:13:00.018Z,11.07
2023-10-31T07:15:49.705Z,11.65
2023-10-31T07:18:38.865Z,13.07
2023-10-31T07:21:25.657Z,10.52
2023-10-31T07:24:16.244Z,14.23
2023-10-31T07:27:10.107Z,11.47
2023-10-31T07:29:56.501Z,9.93
2023-10-31T07:32:42.933Z,9.50
2023-10-31T07:35:32.298Z,8.50
2023-10-31T07:38:19.050Z,12.70
2023-10-31T07:41:07.428Z,8.95
2023-10-31T07:43:54.387Z,8.65
2023-10-31T07:46:40.816Z,8.90
2023-10-31T07:49:29.524Z,10.38
2023-10-31T07:52:16.137Z,9.85
2023-10-31T07:55:03.077Z,9.47
2023-10-31T07:57:52.945Z,8.15
2023-10-31T08:00:44.516Z,9.43
2023-10-31T08:03:30.876Z,8.80
2023-10-31T08:06:18.054Z,7.95
2023-10-31T08:09:09.583Z,7.97
2023-10-31T08:11:56.295Z,9.90
2023-10-31T08:14:44.682Z,8.93
2023-10-31T08:17:31.461Z,8.50
2023-10-31T08:20:18.352Z,8.40
2023-10-31T08:23:10.326Z,8.82
2023-10-31T08:25:57.023Z,8.52
2023-10-31T08:28:44.315Z,10.65
2023-10-31T08:31:34.262Z,9.10
2023-10-31T08:34:23.765Z,9.02
2023-10-31T08:37:12.890Z,12.80
2023-10-31T08:39:59.363Z,10.70
2023-10-31T08:42:46.110Z,9.70
2023-10-31T08:45:32.989Z,10.40
2023-10-31T08:48:21.402Z,10.60
2023-10-31T08:51:08.414Z,11.10
2023-10-31T08:53:55.125Z,10.40
2023-10-31T08:56:42.354Z,10.88
2023-10-31T08:59:28.950Z,8.93
2023-10-31T09:02:18.352Z,8.82
2023-10-31T09:05:07.278Z,9.77
2023-10-31T09:07:55.600Z,8.75
2023-10-31T09:10:45.972Z,8.02
2023-10-31T09:13:41.884Z,8.60
2023-10-31T09:16:30.453Z,8.07
2023-10-31T09:19:17.008Z,8.10
2023-10-31T09:22:05.012Z,7.25
2023-10-31T09:24:51.605Z,8.10
2023-10-31T09:27:40.657Z,9.20
2023-10-31T09:30:27.634Z,10.45
2023-10-31T09:33:17.210Z,8.35
2023-10-31T09:36:04.855Z,8.50
2023-10-31T09:38:52.685Z,7.40
2023-10-31T09:41:39.508Z,7.13
2023-10-31T09:44:28.713Z,7.78
2023-10-31T09:47:19.712Z,7.40
2023-10-31T09:50:07.567Z,6.65
2023-10-31T09:52:57.444Z,7.03
2023-10-31T09:55:49.002Z,5.65
2023-10-31T09:58:40.182Z,8.32
2023-10-31T10:01:30.004Z,6.15
2023-10-31T10:04:23.218Z,7.23
2023-10-31T10:07:09.666Z,9.32
2023-10-31T10:09:58.521Z,9.65
2023-10-31T10:12:47.261Z,6.78
2023-10-31T10:15:45.815Z,8.27
2023-10-31T10:18:35.372Z,6.95
2023-10-31T10:21:22.196Z,6.25
2023-10-31T10:24:10.770Z,6.20
2023-10-31T10:26:57.379Z,6.50
2023-10-31T10:29:46.479Z,8.77
2023-10-31T10:32:33.492Z,7.57
2023-10-31T10:35:20.165Z,8.37
2023-10-31T10:37:50.534Z,7.68
2023-10-31T10:40:18.909Z,6.47
2023-10-31T10:42:49.527Z,7.95
2023-10-31T10:45:22.062Z,6.90
2023-10-31T10:47:52.705Z,13.07
2023-10-31T10:50:29.508Z,8.57
2023-10-31T10:53:09.803Z,11.10
2023-10-31T10:55:44.722Z,9.57
2023-10-31T10:58:22.919Z,11.20
2023-10-31T11:00:55.333Z,6.80
2023-10-31T11:03:26.227Z,7.23
2023-10-31T11:06:14.079Z,11.13
2023-10-31T11:09:01.908Z,9.20
2023-10-31T11:11:50.328Z,12.23
2023-10-31T11:14:46.743Z,11.07
2023-10-31T11:17:36.767Z,14.05
2023-10-31T11:20:24.011Z,12.68
2023-10-31T11:23:10.925Z,8.80
2023-10-31T11:25:58.126Z,7.97
2023-10-31T11:28:45.321Z,7.82
2023-10-31T11:31:32.582Z,10.07
2023-10-31T11:34:22.322Z,11.70
2023-10-31T11:37:30.760Z,6.72
2023-10-31T11:40:19.263Z,10.60
2023-10-31T11:43:11.877Z,9.13
2023-10-31T11:46:03.936Z,9.93
2023-10-31T11:48:52.386Z,6.82
2023-10-31T11:51:40.612Z,8.30
2023-10-31T11:54:30.476Z,8.55
2023-10-31T11:57:29.230Z,9.95
2023-10-31T12:00:23.247Z,7.05
2023-10-31T12:03:02.882Z,7.88
2023-10-31T12:05:33.606Z,6.30
2023-10-31T12:08:06.014Z,9.55
2023-10-31T12:10:34.235Z,6.32
2023-10-31T12:13:04.911Z,5.65
2023-10-31T12:16:07.705Z,6.40
2023-10-31T12:18:59.967Z,5.15
2023-10-31T12:21:49.051Z,5.30
2023-10-31T12:24:37.513Z,8.07
2023-10-31T12:27:26.193Z,8.60
2023-10-31T12:30:15.518Z,10.15
2023-10-31T12:33:10.070Z,6.40
2023-10-31T12:36:03.903Z,9.80
2023-10-31T12:38:58.727Z,6.13
2023-10-31T12:41:49.281Z,5.47
2023-10-31T12:44:37.482Z,6.50
2023-10-31T12:47:24.326Z,7.13
2023-10-31T12:50:14.508Z,6.90
2023-10-31T12:53:01.481Z,6.22
2023-10-31T12:55:48.142Z,5.45
2023-10-31T12:58:35.954Z,7.80
2023-10-31T13:01:22.771Z,6.27
2023-10-31T13:04:09.726Z,8.00
2023-10-31T13:07:02.805Z,6.00
2023-10-31T13:09:53.559Z,5.90
2023-10-31T13:12:40.485Z,3.55
2023-10-31T13:15:31.296Z,3.70
2023-10-31T13:18:17.819Z,6.95
2023-10-31T13:21:04.674Z,3.75
2023-10-31T13:23:51.135Z,4.53
2023-10-31T13:26:40.612Z,5.57
2023-10-31T13:29:28.591Z,4.55
2023-10-31T13:32:19.598Z,4.30
2023-10-31T13:35:06.830Z,3.17
2023-10-31T13:37:56.156Z,4.68
2023-10-31T13:40:45.733Z,5.03
2023-10-31T13:43:34.829Z,5.65
2023-10-31T13:46:21.414Z,5.03
2023-10-31T13:49:11.573Z,3.05
2023-10-31T13:51:58.003Z,3.45
2023-10-31T13:54:44.682Z,5.28
2023-10-31T13:57:33.527Z,2.72
2023-10-31T14:00:20.179Z,4.82
2023-10-31T14:03:07.296Z,4.47
2023-10-31T14:05:56.545Z,3.20
2023-10-31T14:08:43.808Z,3.20
2023-10-31T14:11:31.584Z,2.80
2023-10-31T14:14:20.560Z,2.80
2023-10-31T14:17:09.237Z,2.20
2023-10-31T14:19:57.934Z,3.40
2023-10-31T14:22:50.791Z,3.20
2023-10-31T14:25:40.084Z,6.63
2023-10-31T14:28:29.719Z,2.50
2023-10-31T14:31:16.291Z,4.37
2023-10-31T14:34:02.940Z,3.47
2023-10-31T14:36:50.154Z,3.83
2023-10-31T14:39:42.486Z,5.15
2023-10-31T14:42:38.560Z,2.85
2023-10-31T14:45:28.486Z,5.20
2023-10-31T14:48:15.087Z,5.13
2023-10-31T14:51:02.287Z,3.63
2023-10-31T14:53:50.416Z,3.08
2023-10-31T14:56:42.469Z,5.00
2023-10-31T14:59:31.672Z,3.97
2023-10-31T15:02:20.509Z,4.50
2023-10-31T15:05:07.319Z,2.80
2023-10-31T15:07:56.223Z,3.60
2023-10-31T15:10:43.596Z,3.17
2023-10-31T15:13:33.974Z,3.43
2023-10-31T15:16:20.398Z,4.37
2023-10-31T15:19:10.320Z,6.55
2023-10-31T15:22:04.097Z,5.97
2023-10-31T15:24:53.792Z,2.97
2023-10-31T15:27:40.875Z,2.70
2023-10-31T15:30:28.950Z,4.17
2023-10-31T15:33:15.368Z,4.65
2023-10-31T15:36:02.712Z,2.50
2023-10-31T15:38:51.662Z,5.40
2023-10-31T15:41:38.277Z,5.82
2023-10-31T15:44:25.652Z,8.35
2023-10-31T15:47:15.803Z,4.38
2023-10-31T15:50:05.636Z,5.60
2023-10-31T15:52:52.444Z,4.70
2023-10-31T15:55:39.206Z,3.60
2023-10-31T15:58:31.234Z,4.68
2023-10-31T16:01:20.956Z,3.92
2023-10-31T16:04:11.127Z,4.10
2023-10-31T16:06:58.116Z,4.27
2023-10-31T16:09:44.891Z,4.45
2023-10-31T16:12:33.886Z,4.10
2023-10-31T16:15:20.592Z,6.40
2023-10-31T16:18:07.615Z,4.67
2023-10-31T16:20:55.932Z,6.70
2023-10-31T16:23:42.673Z,5.93
2023-10-31T16:26:29.613Z,7.23
2023-10-31T16:29:16.488Z,6.45
2023-10-31T16:32:05.989Z,6.93
2023-10-31T16:34:55.031Z,7.30
2023-10-31T16:37:53.170Z,6.28
2023-10-31T16:40:39.846Z,8.40
2023-10-31T16:43:26.265Z,6.85
2023-10-31T16:46:14.730Z,8.20
2023-10-31T16:49:01.889Z,8.77
2023-10-31T16:51:48.650Z,10.55
2023-10-31T16:54:39.293Z,7.10
2023-10-31T16:57:26.628Z,6.53
2023-10-31T17:00:14.290Z,7.90
2023-10-31T17:03:01.364Z,6.93
2023-10-31T17:05:48.313Z,7.68
2023-10-31T17:08:37.631Z,8.02
2023-10-31T17:11:25.599Z,7.10
2023-10-31T17:14:12.341Z,5.07
2023-10-31T17:16:58.992Z,5.80
2023-10-31T17:19:47.831Z,7.00
2023-10-31T17:22:36.881Z,8.20
2023-10-31T17:25:23.566Z,6.38
2023-10-31T17:28:12.898Z,7.80
2023-10-31T17:31:00.374Z,6.95
2023-10-31T17:33:48.347Z,7.50
2023-10-31T17:36:34.813Z,8.15
2023-10-31T17:39:22.535Z,7.38
2023-10-31T17:42:09.402Z,5.72
2023-10-31T17:44:57.995Z,13.82
2023-10-31T17:47:46.815Z,7.37
2023-10-31T17:50:33.973Z,7.43
2023-10-31T17:53:21.668Z,5.68
2023-10-31T17:56:09.063Z,5.20
2023-10-31T17:58:58.592Z,5.72
2023-10-31T18:01:52.944Z,8.02
2023-10-31T18:04:41.678Z,10.00
2023-10-31T18:07:28.286Z,6.40
2023-10-31T18:09:57.816Z,6.25
2023-10-31T18:12:25.869Z,6.13
2023-10-31T18:14:56.454Z,4.78
2023-10-31T18:17:25.988Z,5.82
2023-10-31T18:19:56.848Z,5.47
2023-10-31T18:22:24.925Z,4.82
2023-10-31T18:24:53.198Z,6.30
2023-10-31T18:27:23.811Z,4.32
2023-10-31T18:29:53.408Z,5.97
2023-10-31T18:32:25.473Z,5.30
2023-10-31T18:34:55.993Z,5.63
2023-10-31T18:37:24.643Z,5.15
2023-10-31T18:39:52.714Z,7.78
2023-10-31T18:42:23.654Z,7.10
2023-10-31T18:44:54.907Z,4.95
2023-10-31T18:47:42.854Z,4.00
2023-10-31T18:50:39.727Z,5.45
2023-10-31T18:53:26.375Z,7.32
2023-10-31T18:56:12.832Z,4.32
2023-10-31T18:59:02.732Z,5.53
2023-10-31T19:01:55.461Z,4.50
2023-10-31T19:04:42.094Z,6.07
2023-10-31T19:07:29.940Z,4.38
2023-10-31T19:10:17.214Z,4.50
2023-10-31T19:13:03.938Z,4.10
2023-10-31T19:15:50.995Z,5.85
2023-10-31T19:18:37.591Z,4.87
2023-10-31T19:21:24.569Z,5.40
2023-10-31T19:24:20.284Z,4.83
2023-10-31T19:27:10.693Z,6.95
2023-10-31T19:29:58.961Z,5.30
2023-10-31T19:32:46.232Z,7.95
2023-10-31T19:35:35.158Z,5.65
2023-10-31T19:38:23.720Z,7.43
2023-10-31T19:41:14.378Z,7.72
2023-10-31T19:44:01.779Z,9.10
2023-10-31T19:46:52.609Z,8.45
2023-10-31T19:49:39.015Z,7.93
2023-10-31T19:52:27.170Z,8.20
2023-10-31T19:55:13.714Z,8.75
2023-10-31T19:58:01.632Z,7.40
2023-10-31T20:00:48.207Z,7.53
2023-10-31T20:03:40.083Z,8.65
2023-10-31T20:06:26.546Z,7.97
2023-10-31T20:09:13.274Z,8.20
2023-10-31T20:11:59.734Z,9.93
2023-10-31T20:14:59.898Z,6.65
2023-10-31T20:17:48.698Z,8.18
2023-10-31T20:20:36.157Z,8.45
2023-10-31T20:23:23.258Z,7.10
2023-10-31T20:26:10.608Z,8.67
2023-10-31T20:28:58.075Z,8.25
2023-10-31T20:31:45.970Z,5.53
2023-10-31T20:34:34.772Z,6.90
2023-10-31T20:37:21.469Z,7.20
2023-10-31T20:40:09.739Z,8.18
2023-10-31T20:42:56.204Z,8.23
2023-10-31T20:45:44.922Z,5.30
2023-10-31T20:48:32.576Z,9.93
2023-10-31T20:51:19.404Z,7.63
2023-10-31T20:54:05.909Z,10.70
2023-10-31T20:56:57.303Z,7.53
2023-10-31T20:59:45.086Z,5.30
2023-10-31T21:02:31.999Z,7.20
2023-10-31T21:05:20.157Z,7.20
2023-10-31T21:08:06.827Z,7.95
2023-10-31T21:10:53.413Z,6.85
2023-10-31T21:13:40.619Z,6.03
2023-10-31T21:16:26.950Z,6.40
2023-10-31T21:19:16.790Z,5.55
2023-10-31T21:22:09.705Z,6.72
2023-10-31T21:24:58.183Z,8.88
2023-10-31T21:27:49.540Z,7.90
2023-10-31T21:30:36.475Z,7.95
2023-10-31T21:33:24.983Z,6.97
2023-10-31T21:36:12.034Z,5.10
2023-10-31T21:39:02.413Z,6.60
2023-10-31T21:41:50.073Z,8.05
2023-10-31T21:44:36.424Z,7.53
2023-10-31T21:47:23.335Z,6.60
2023-10-31T21:50:12.318Z,5.88
2023-10-31T21:52:58.995Z,8.63
2023-10-31T21:55:46.982Z,6.80
2023-10-31T21:58:33.601Z,8.05
2023-10-31T22:01:21.056Z,8.73
2023-10-31T22:04:07.912Z,6.63
2023-10-31T22:06:55.253Z,7.70
2023-10-31T22:09:41.807Z,7.00
2023-10-31T22:12:29.758Z,12.48
2023-10-31T22:15:16.244Z,9.63
2023-10-31T22:18:03.035Z,7.40
2023-10-31T22:20:50.645Z,7.95
2023-10-31T22:23:39.828Z,7.97
2023-10-31T22:26:27.323Z,8.23
2023-10-31T22:29:15.256Z,7.97
2023-10-31T22:32:04.235Z,7.90
2023-10-31T22:34:51.126Z,7.97
2023-10-31T22:37:37.873Z,11.50
2023-10-31T22:40:27.501Z,8.30
2023-10-31T22:43:16.127Z,8.67
2023-10-31T22:46:09.835Z,6.57
2023-10-31T22:48:56.193Z,6.18
2023-10-31T22:51:42.904Z,7.15
2023-10-31T22:54:29.735Z,11.25
2023-10-31T22:57:16.151Z,6.85
2023-10-31T22:59:44.233Z,6.65
2023-10-31T23:02:17.389Z,9.82
2023-10-31T23:05:07.346Z,7.15
2023-10-31T23:07:37.838Z,8.38
2023-10-31T23:10:07.553Z,7.50
2023-10-31T23:12:35.934Z,10.93
2023-10-31T23:15:12.126Z,10.98
2023-10-31T23:17:42.507Z,10.07
2023-10-31T23:20:12.768Z,8.48
2023-10-31T23:22:43.832Z,9.45
2023-10-31T23:25:12.279Z,9.82
2023-10-31T23:27:41.066Z,6.65
2023-10-31T23:30:17.612Z,7.03
2023-10-31T23:32:47.688Z,8.20
2023-10-31T23:35:16.166Z,7.63
2023-10-31T23:37:46.839Z,6.03
2023-10-31T23:40:18.187Z,9.57
2023-10-31T23:42:48.771Z,8.88
2023-10-31T23:45:17.176Z,8.48
2023-10-31T23:47:49.822Z,4.70
2023-10-31T23:50:20.309Z,10.73
2023-10-31T23:52:48.483Z,9.63
2023-10-31T23:55:17.086Z,6.13
2023-10-31T23:58:03.672Z,6.32
